createdAt,value
2022-09-13T00:00:44.961Z,13.10
2022-09-13T00:03:13.057Z,13.10
2022-09-13T00:05:40.205Z,13.00
2022-09-13T00:08:07.802Z,13.00
2022-09-13T00:10:39.644Z,13.00
2022-09-13T00:13:08.207Z,13.00
2022-09-13T00:15:36.150Z,13.00
2022-09-13T00:18:03.080Z,13.10
2022-09-13T00:20:30.259Z,13.00
2022-09-13T00:22:56.926Z,12.90
2022-09-13T00:25:23.636Z,12.90
2022-09-13T00:27:50.706Z,12.90
2022-09-13T00:30:17.507Z,12.90
2022-09-13T00:32:44.248Z,12.90
2022-09-13T00:35:10.963Z,12.90
2022-09-13T00:37:37.748Z,12.90
2022-09-13T00:40:05.710Z,12.80
2022-09-13T00:42:33.354Z,12.80
2022-09-13T00:45:14.697Z,12.70
2022-09-13T00:47:53.959Z,12.70
2022-09-13T00:50:45.280Z,12.70
2022-09-13T00:53:35.441Z,12.70
2022-09-13T00:56:25.199Z,12.70
2022-09-13T00:59:01.649Z,12.70
2022-09-13T01:01:53.380Z,12.60
2022-09-13T01:04:20.918Z,12.50
2022-09-13T01:06:48.622Z,12.60
2022-09-13T01:09:15.756Z,12.50
2022-09-13T01:12:04.417Z,12.60
2022-09-13T01:14:32.822Z,12.60
2022-09-13T01:16:59.619Z,12.50
2022-09-13T01:19:26.632Z,12.50
2022-09-13T01:22:12.544Z,12.50
2022-09-13T01:25:16.948Z,12.40
2022-09-13T01:27:43.633Z,12.40
2022-09-13T01:30:23.637Z,12.40
2022-09-13T01:33:02.438Z,12.50
2022-09-13T01:35:41.275Z,12.50
2022-09-13T01:38:34.414Z,12.50
2022-09-13T01:41:10.997Z,12.40
2022-09-13T01:44:04.002Z,12.40
2022-09-13T01:46:42.724Z,12.40
2022-09-13T01:49:33.968Z,12.30
2022-09-13T01:52:13.405Z,12.30
2022-09-13T01:54:55.566Z,12.30
2022-09-13T01:57:28.880Z,12.30
2022-09-13T02:00:09.151Z,12.30
2022-09-13T02:03:15.141Z,12.20
2022-09-13T02:05:51.938Z,12.20
2022-09-13T02:08:24.799Z,12.20
2022-09-13T02:11:04.138Z,12.20
2022-09-13T02:13:36.178Z,12.20
2022-09-13T02:16:10.234Z,12.20
2022-09-13T02:18:44.199Z,12.20
2022-09-13T02:21:28.795Z,12.20
2022-09-13T02:24:03.239Z,12.20
2022-09-13T02:26:30.994Z,12.10
2022-09-13T02:29:02.432Z,12.10
2022-09-13T02:31:37.038Z,12.00
2022-09-13T02:34:23.186Z,12.00
2022-09-13T02:36:53.112Z,12.00
2022-09-13T02:39:24.556Z,12.00
2022-09-13T02:42:04.622Z,12.10
2022-09-13T02:44:42.166Z,12.10
2022-09-13T02:47:33.256Z,12.20
2022-09-13T02:50:06.214Z,12.20
2022-09-13T02:52:40.589Z,12.10
2022-09-13T02:55:07.318Z,12.00
2022-09-13T02:57:50.564Z,12.00
2022-09-13T03:00:17.464Z,12.00
2022-09-13T03:02:45.521Z,11.90
2022-09-13T03:05:12.327Z,12.00
2022-09-13T03:07:39.015Z,12.00
2022-09-13T03:10:09.455Z,12.00
2022-09-13T03:13:16.466Z,11.90
2022-09-13T03:15:53.205Z,11.90
2022-09-13T03:18:40.882Z,11.90
2022-09-13T03:21:29.558Z,11.90
2022-09-13T03:24:24.289Z,11.90
2022-09-13T03:27:33.506Z,11.90
2022-09-13T03:30:08.359Z,11.90
2022-09-13T03:33:06.871Z,11.90
2022-09-13T03:35:49.511Z,11.90
2022-09-13T03:38:21.063Z,11.80
2022-09-13T03:41:17.096Z,11.70
2022-09-13T03:43:54.286Z,11.70
2022-09-13T03:46:33.771Z,11.80
2022-09-13T03:49:06.355Z,11.80
2022-09-13T03:51:33.763Z,11.90
2022-09-13T03:54:04.747Z,11.90
2022-09-13T03:56:31.583Z,11.90
2022-09-13T03:58:58.267Z,11.90
2022-09-13T04:01:25.815Z,11.90
2022-09-13T04:03:56.559Z,12.00
2022-09-13T04:06:23.835Z,11.90
2022-09-13T04:08:50.752Z,11.90
2022-09-13T04:11:17.521Z,12.00
2022-09-13T04:13:44.292Z,12.00
2022-09-13T04:16:11.071Z,12.00
2022-09-13T04:18:37.775Z,12.00
2022-09-13T04:21:04.785Z,12.10
2022-09-13T04:23:31.793Z,12.00
2022-09-13T04:26:03.441Z,12.10
2022-09-13T04:28:30.860Z,12.10
2022-09-13T04:30:57.574Z,12.10
2022-09-13T04:33:24.309Z,12.10
2022-09-13T04:35:57.978Z,12.10
2022-09-13T04:38:24.720Z,12.00
2022-09-13T04:40:57.485Z,12.10
2022-09-13T04:43:24.672Z,12.10
2022-09-13T04:45:51.811Z,12.10
2022-09-13T04:48:18.750Z,12.10
2022-09-13T04:50:45.700Z,12.00
2022-09-13T04:53:12.502Z,12.10
2022-09-13T04:55:39.296Z,12.10
2022-09-13T04:58:06.228Z,12.00
2022-09-13T05:00:33.966Z,12.10
2022-09-13T05:03:00.767Z,12.20
2022-09-13T05:05:28.930Z,12.20
2022-09-13T05:07:55.663Z,12.10
2022-09-13T05:10:22.380Z,12.20
2022-09-13T05:12:49.229Z,12.10
2022-09-13T05:15:15.962Z,12.20
2022-09-13T05:17:42.762Z,12.20
2022-09-13T05:20:10.528Z,12.20
2022-09-13T05:22:37.364Z,12.30
2022-09-13T05:25:04.504Z,12.30
2022-09-13T05:27:31.218Z,12.30
2022-09-13T05:29:57.901Z,12.40
2022-09-13T05:32:24.586Z,12.40
2022-09-13T05:34:51.289Z,12.50
2022-09-13T05:37:18.903Z,12.40
2022-09-13T05:40:09.755Z,12.50
2022-09-13T05:42:32.314Z,12.60
2022-09-13T05:44:59.064Z,12.70
2022-09-13T05:47:25.744Z,12.70
2022-09-13T05:50:09.223Z,12.80
2022-09-13T05:52:36.375Z,12.90
2022-09-13T05:55:03.207Z,12.90
2022-09-13T05:57:29.871Z,13.00
2022-09-13T05:59:56.530Z,13.00
2022-09-13T06:02:23.269Z,13.00
2022-09-13T06:04:50.818Z,13.00
2022-09-13T06:07:17.787Z,13.10
2022-09-13T06:09:45.292Z,13.10
2022-09-13T06:12:12.022Z,13.10
2022-09-13T06:14:38.789Z,13.10
2022-09-13T06:17:05.511Z,13.10
2022-09-13T06:19:32.577Z,13.10
2022-09-13T06:21:59.347Z,13.20
2022-09-13T06:24:26.076Z,13.20
2022-09-13T06:26:53.336Z,13.20
2022-09-13T06:29:20.056Z,13.20
2022-09-13T06:31:46.830Z,13.40
2022-09-13T06:34:17.521Z,13.60
2022-09-13T06:36:44.262Z,13.70
2022-09-13T06:39:11.105Z,13.90
2022-09-13T06:41:38.130Z,14.00
2022-09-13T06:44:05.010Z,14.10
2022-09-13T06:46:34.120Z,14.10
2022-09-13T06:49:03.742Z,14.30
2022-09-13T06:51:31.082Z,14.30
2022-09-13T06:53:58.241Z,14.40
2022-09-13T06:56:33.312Z,14.60
2022-09-13T06:59:04.826Z,14.80
2022-09-13T07:01:37.307Z,15.00
2022-09-13T07:04:06.816Z,15.10
2022-09-13T07:06:39.371Z,15.20
2022-09-13T07:09:08.185Z,15.20
2022-09-13T07:11:37.073Z,15.30
2022-09-13T07:14:04.907Z,15.30
2022-09-13T07:16:33.798Z,15.40
2022-09-13T07:19:03.070Z,15.40
2022-09-13T07:21:29.789Z,15.60
2022-09-13T07:23:57.132Z,15.80
2022-09-13T07:26:24.869Z,16.00
2022-09-13T07:28:54.381Z,16.30
2022-09-13T07:31:39.143Z,16.50
2022-09-13T07:34:08.495Z,16.60
2022-09-13T07:36:36.299Z,16.80
2022-09-13T07:39:04.004Z,17.10
2022-09-13T07:41:32.635Z,17.30
2022-09-13T07:44:01.571Z,17.50
2022-09-13T07:46:32.956Z,17.60
2022-09-13T07:49:01.950Z,17.60
2022-09-13T07:51:33.661Z,17.70
2022-09-13T07:54:04.594Z,17.70
2022-09-13T07:56:34.152Z,17.80
2022-09-13T07:59:04.321Z,17.90
2022-09-13T08:01:51.072Z,18.00
2022-09-13T08:04:21.327Z,18.10
2022-09-13T08:06:48.210Z,18.20
2022-09-13T08:09:15.844Z,18.30
2022-09-13T08:11:52.980Z,18.40
2022-09-13T08:14:22.188Z,18.50
2022-09-13T08:16:48.989Z,18.60
2022-09-13T08:19:17.973Z,18.80
2022-09-13T08:21:45.320Z,18.90
2022-09-13T08:24:17.971Z,19.10
2022-09-13T08:26:45.686Z,19.20
2022-09-13T08:29:13.515Z,19.30
2022-09-13T08:31:40.866Z,19.50
2022-09-13T08:34:11.763Z,19.50
2022-09-13T08:36:38.504Z,19.70
2022-09-13T08:39:05.495Z,19.80
2022-09-13T08:41:42.371Z,19.80
2022-09-13T08:44:19.385Z,20.00
2022-09-13T08:46:47.253Z,20.10
2022-09-13T08:49:26.541Z,20.30
2022-09-13T08:52:12.018Z,20.50
2022-09-13T08:54:38.753Z,20.80
2022-09-13T08:57:34.506Z,21.10
2022-09-13T09:00:10.324Z,21.40
2022-09-13T09:02:49.301Z,21.60
2022-09-13T09:05:25.322Z,21.80
2022-09-13T09:08:01.492Z,22.10
2022-09-13T09:10:35.679Z,22.30
2022-09-13T09:13:34.078Z,22.30
2022-09-13T09:16:33.547Z,22.50
2022-09-13T09:19:15.561Z,22.70
2022-09-13T09:21:44.675Z,23.00
2022-09-13T09:24:24.032Z,23.10
2022-09-13T09:26:52.733Z,23.30
2022-09-13T09:29:25.616Z,23.40
2022-09-13T09:32:16.737Z,23.50
2022-09-13T09:34:56.493Z,23.60
2022-09-13T09:37:29.875Z,23.70
2022-09-13T09:40:02.903Z,23.80
2022-09-13T09:42:33.313Z,23.90
2022-09-13T09:45:04.742Z,24.10
2022-09-13T09:47:45.650Z,24.20
2022-09-13T09:50:18.428Z,24.40
2022-09-13T09:53:08.149Z,24.60
2022-09-13T09:56:00.782Z,24.70
2022-09-13T09:58:42.177Z,24.90
2022-09-13T10:01:29.138Z,25.10
2022-09-13T10:04:16.454Z,25.40
2022-09-13T10:06:46.110Z,25.60
2022-09-13T10:09:20.091Z,25.70
2022-09-13T10:11:51.159Z,25.80
2022-09-13T10:14:27.462Z,25.80
2022-09-13T10:17:29.741Z,25.90
2022-09-13T10:20:19.509Z,26.10
2022-09-13T10:23:27.464Z,26.20
2022-09-13T10:26:08.935Z,26.20
2022-09-13T10:28:54.930Z,26.20
2022-09-13T10:31:27.859Z,26.20
2022-09-13T10:34:02.603Z,26.30
2022-09-13T10:36:53.352Z,26.40
2022-09-13T10:39:21.863Z,26.40
2022-09-13T10:41:52.689Z,26.60
2022-09-13T10:44:37.874Z,26.90
2022-09-13T10:47:08.077Z,26.70
2022-09-13T10:49:42.645Z,26.60
2022-09-13T10:52:31.147Z,26.50
2022-09-13T10:55:26.507Z,26.60
2022-09-13T10:58:07.426Z,26.50
2022-09-13T11:00:52.702Z,26.00
2022-09-13T11:03:49.575Z,25.90
2022-09-13T11:06:39.714Z,25.90
2022-09-13T11:09:27.417Z,26.00
2022-09-13T11:12:11.727Z,26.00
2022-09-13T11:15:05.881Z,25.80
2022-09-13T11:18:14.129Z,25.60
2022-09-13T11:20:53.326Z,25.70
2022-09-13T11:23:38.712Z,25.80
2022-09-13T11:26:24.092Z,25.90
2022-09-13T11:29:21.485Z,26.50
2022-09-13T11:31:51.137Z,27.10
2022-09-13T11:35:02.577Z,27.20
2022-09-13T11:38:03.180Z,27.20
2022-09-13T11:40:51.810Z,26.80
2022-09-13T11:43:52.231Z,26.40
2022-09-13T11:46:34.055Z,26.50
2022-09-13T11:49:31.927Z,26.70
2022-09-13T11:52:20.586Z,26.80
2022-09-13T11:54:59.301Z,27.00
2022-09-13T11:57:32.670Z,27.20
2022-09-13T12:00:19.134Z,27.20
2022-09-13T12:03:09.669Z,27.20
2022-09-13T12:05:49.305Z,27.70
2022-09-13T12:08:27.285Z,28.30
2022-09-13T12:10:58.159Z,28.40
2022-09-13T12:13:31.606Z,28.40
2022-09-13T12:16:06.920Z,28.50
2022-09-13T12:18:48.513Z,28.40
2022-09-13T12:21:20.262Z,28.50
2022-09-13T12:23:59.912Z,28.40
2022-09-13T12:26:46.684Z,28.30
2022-09-13T12:29:28.396Z,28.20
2022-09-13T12:31:59.797Z,28.20
2022-09-13T12:34:35.181Z,28.20
2022-09-13T12:37:18.099Z,28.00
2022-09-13T12:40:16.074Z,28.10
2022-09-13T12:43:03.071Z,28.00
2022-09-13T12:45:59.198Z,27.90
2022-09-13T12:48:37.920Z,28.10
2022-09-13T12:51:14.734Z,28.20
2022-09-13T12:54:00.137Z,28.20
2022-09-13T12:56:54.859Z,28.00
2022-09-13T12:59:52.927Z,27.60
2022-09-13T13:02:37.521Z,27.40
2022-09-13T13:05:18.202Z,27.10
2022-09-13T13:07:51.839Z,27.00
2022-09-13T13:10:28.221Z,27.00
2022-09-13T13:12:54.963Z,27.00
2022-09-13T13:15:27.889Z,27.10
2022-09-13T13:17:55.674Z,27.20
2022-09-13T13:20:44.425Z,27.20
2022-09-13T13:23:20.399Z,27.30
2022-09-13T13:26:11.251Z,27.50
2022-09-13T13:28:47.497Z,27.50
2022-09-13T13:31:35.560Z,27.50
2022-09-13T13:34:14.250Z,27.60
2022-09-13T13:36:43.691Z,27.80
2022-09-13T13:39:25.720Z,27.90
2022-09-13T13:42:00.290Z,27.90
2022-09-13T13:44:26.944Z,27.90
2022-09-13T13:47:08.830Z,28.00
2022-09-13T13:49:41.103Z,27.80
2022-09-13T13:52:17.829Z,27.50
2022-09-13T13:55:04.557Z,27.50
2022-09-13T13:57:32.695Z,27.40
2022-09-13T14:00:21.389Z,27.10
2022-09-13T14:02:53.370Z,27.00
2022-09-13T14:05:33.489Z,26.60
2022-09-13T14:08:21.796Z,26.60
2022-09-13T14:11:10.384Z,26.50
2022-09-13T14:14:18.585Z,26.60
2022-09-13T14:17:15.252Z,27.20
2022-09-13T14:19:48.173Z,27.90
2022-09-13T14:22:30.861Z,28.20
2022-09-13T14:25:12.511Z,28.10
2022-09-13T14:27:41.436Z,28.30
2022-09-13T14:30:22.052Z,28.40
2022-09-13T14:32:55.583Z,28.30
2022-09-13T14:35:29.336Z,28.20
2022-09-13T14:38:09.952Z,28.20
2022-09-13T14:40:38.464Z,28.30
2022-09-13T14:43:16.775Z,28.30
2022-09-13T14:45:46.486Z,28.40
2022-09-13T14:48:17.556Z,28.30
2022-09-13T14:50:52.875Z,28.00
2022-09-13T14:53:26.522Z,27.90
2022-09-13T14:56:01.223Z,27.70
2022-09-13T14:58:38.404Z,27.60
2022-09-13T15:01:09.905Z,27.50
2022-09-13T15:03:40.446Z,27.30
2022-09-13T15:06:07.369Z,27.10
2022-09-13T15:08:34.532Z,26.90
2022-09-13T15:11:03.720Z,26.80
2022-09-13T15:13:30.703Z,26.50
2022-09-13T15:15:58.644Z,26.40
2022-09-13T15:18:36.537Z,26.20
2022-09-13T15:21:17.128Z,26.20
2022-09-13T15:23:50.456Z,26.30
2022-09-13T15:26:25.726Z,26.30
2022-09-13T15:29:05.487Z,26.30
2022-09-13T15:31:34.462Z,26.30
2022-09-13T15:34:20.401Z,26.30
2022-09-13T15:36:49.301Z,26.30
2022-09-13T15:39:19.963Z,26.30
2022-09-13T15:41:58.255Z,26.30
2022-09-13T15:44:26.379Z,26.20
2022-09-13T15:46:56.335Z,26.10
2022-09-13T15:49:26.489Z,26.00
2022-09-13T15:51:55.415Z,25.90
2022-09-13T15:54:25.464Z,25.80
2022-09-13T15:56:52.944Z,25.80
2022-09-13T15:59:21.787Z,25.70
2022-09-13T16:01:50.365Z,25.60
2022-09-13T16:04:17.292Z,25.50
2022-09-13T16:06:44.732Z,25.50
2022-09-13T16:09:19.732Z,25.40
2022-09-13T16:11:47.763Z,25.30
2022-09-13T16:14:15.694Z,25.30
2022-09-13T16:16:42.525Z,25.20
2022-09-13T16:19:17.039Z,25.20
2022-09-13T16:21:44.105Z,25.10
2022-09-13T16:24:11.202Z,25.00
2022-09-13T16:26:38.283Z,25.00
2022-09-13T16:29:05.303Z,25.10
2022-09-13T16:31:32.110Z,25.10
2022-09-13T16:33:58.801Z,25.00
2022-09-13T16:36:28.719Z,24.90
2022-09-13T16:38:57.025Z,24.90
2022-09-13T16:41:24.100Z,24.80
2022-09-13T16:43:50.948Z,24.60
2022-09-13T16:46:18.275Z,24.50
2022-09-13T16:48:45.023Z,24.30
2022-09-13T16:51:13.094Z,24.20
2022-09-13T16:53:42.123Z,24.10
2022-09-13T16:56:15.543Z,24.10
2022-09-13T16:58:46.662Z,24.00
2022-09-13T17:01:16.084Z,23.90
2022-09-13T17:03:43.179Z,23.70
2022-09-13T17:06:12.548Z,23.60
2022-09-13T17:08:40.877Z,23.50
2022-09-13T17:11:13.726Z,23.50
2022-09-13T17:13:41.897Z,23.40
2022-09-13T17:16:30.223Z,23.30
2022-09-13T17:18:59.021Z,23.10
2022-09-13T17:21:26.929Z,23.10
2022-09-13T17:23:54.345Z,23.00
2022-09-13T17:26:21.639Z,23.00
2022-09-13T17:28:48.758Z,23.00
2022-09-13T17:31:15.697Z,23.00
2022-09-13T17:33:42.492Z,23.00
2022-09-13T17:36:11.655Z,22.80
2022-09-13T17:38:39.083Z,22.80
2022-09-13T17:41:12.798Z,22.70
2022-09-13T17:43:41.752Z,22.60
2022-09-13T17:46:17.166Z,22.60
2022-09-13T17:48:44.707Z,22.60
2022-09-13T17:51:15.229Z,22.60
2022-09-13T17:53:48.550Z,22.30
2022-09-13T17:56:25.635Z,22.30
2022-09-13T17:58:52.534Z,22.30
2022-09-13T18:01:19.314Z,22.30
2022-09-13T18:03:46.236Z,22.20
2022-09-13T18:06:16.563Z,22.10
2022-09-13T18:08:43.219Z,22.00
2022-09-13T18:11:19.406Z,22.00
2022-09-13T18:13:48.772Z,22.00
2022-09-13T18:16:21.150Z,22.00
2022-09-13T18:18:49.851Z,21.90
2022-09-13T18:21:19.207Z,21.80
2022-09-13T18:23:48.050Z,21.70
2022-09-13T18:26:17.465Z,21.70
2022-09-13T18:28:44.740Z,21.70
2022-09-13T18:31:16.732Z,21.50
2022-09-13T18:33:44.285Z,21.40
2022-09-13T18:36:12.253Z,21.50
2022-09-13T18:38:41.656Z,21.40
2022-09-13T18:41:14.843Z,21.50
2022-09-13T18:43:43.260Z,21.60
2022-09-13T18:46:12.618Z,21.50
2022-09-13T18:48:45.247Z,21.60
2022-09-13T18:51:14.641Z,21.50
2022-09-13T18:53:41.541Z,21.30
2022-09-13T18:56:10.972Z,21.30
2022-09-13T18:58:39.613Z,21.20
2022-09-13T19:01:12.581Z,21.20
2022-09-13T19:03:46.313Z,21.10
2022-09-13T19:06:18.983Z,21.00
2022-09-13T19:08:47.612Z,21.10
2022-09-13T19:11:42.081Z,21.00
2022-09-13T19:14:02.881Z,21.00
2022-09-13T19:16:29.723Z,21.00
2022-09-13T19:18:56.876Z,20.90
2022-09-13T19:21:29.602Z,20.90
2022-09-13T19:23:59.979Z,20.90
2022-09-13T19:26:34.075Z,20.90
2022-09-13T19:29:07.124Z,20.80
2022-09-13T19:31:39.420Z,20.70
2022-09-13T19:34:07.280Z,20.70
2022-09-13T19:36:36.325Z,20.70
2022-09-13T19:39:04.959Z,20.60
2022-09-13T19:41:32.311Z,20.60
2022-09-13T19:44:01.095Z,20.50
2022-09-13T19:46:34.458Z,20.50
2022-09-13T19:49:02.244Z,20.50
2022-09-13T19:51:31.598Z,20.50
2022-09-13T19:53:59.781Z,20.50
2022-09-13T19:56:32.783Z,20.50
2022-09-13T19:59:01.342Z,20.50
2022-09-13T20:01:34.295Z,20.40
2022-09-13T20:04:03.795Z,20.40
2022-09-13T20:06:42.337Z,20.40
2022-09-13T20:09:10.640Z,20.30
2022-09-13T20:11:42.066Z,20.30
2022-09-13T20:14:09.952Z,20.30
2022-09-13T20:16:38.389Z,20.30
2022-09-13T20:19:23.892Z,20.20
2022-09-13T20:21:55.585Z,20.20
2022-09-13T20:24:22.548Z,20.10
2022-09-13T20:26:51.998Z,20.00
2022-09-13T20:29:19.291Z,20.00
2022-09-13T20:31:46.111Z,20.00
2022-09-13T20:34:15.179Z,20.00
2022-09-13T20:36:44.258Z,20.00
2022-09-13T20:39:11.429Z,20.00
2022-09-13T20:41:38.425Z,19.80
2022-09-13T20:44:05.388Z,19.80
2022-09-13T20:46:32.195Z,19.80
2022-09-13T20:48:59.106Z,19.80
2022-09-13T20:51:27.606Z,19.80
2022-09-13T20:54:00.392Z,19.70
2022-09-13T20:56:28.685Z,19.70
2022-09-13T20:58:58.251Z,19.70
2022-09-13T21:01:26.512Z,19.80
2022-09-13T21:03:55.024Z,19.70
2022-09-13T21:06:23.909Z,19.70
2022-09-13T21:08:50.956Z,19.80
2022-09-13T21:11:20.692Z,19.90
2022-09-13T21:13:50.103Z,19.90
2022-09-13T21:16:19.602Z,19.90
2022-09-13T21:18:47.247Z,19.70
2022-09-13T21:21:16.388Z,19.60
2022-09-13T21:23:43.919Z,19.40
2022-09-13T21:26:13.795Z,19.50
2022-09-13T21:28:42.820Z,19.50
2022-09-13T21:31:19.502Z,19.50
2022-09-13T21:33:48.264Z,19.40
2022-09-13T21:36:15.073Z,19.20
2022-09-13T21:38:41.790Z,19.20
2022-09-13T21:41:13.498Z,19.10
2022-09-13T21:43:41.077Z,19.00
2022-09-13T21:46:09.990Z,19.00
2022-09-13T21:48:36.911Z,19.20
2022-09-13T21:51:08.788Z,19.30
2022-09-13T21:53:39.536Z,19.30
2022-09-13T21:56:08.690Z,19.30
2022-09-13T21:58:36.916Z,19.10
2022-09-13T22:01:14.365Z,19.00
2022-09-13T22:03:43.604Z,18.90
2022-09-13T22:06:12.481Z,18.80
2022-09-13T22:08:41.651Z,18.70
2022-09-13T22:11:16.987Z,18.80
2022-09-13T22:13:48.029Z,18.90
2022-09-13T22:16:22.421Z,19.00
2022-09-13T22:18:52.367Z,19.10
2022-09-13T22:21:21.505Z,19.00
2022-09-13T22:23:48.523Z,19.10
2022-09-13T22:26:24.520Z,19.00
2022-09-13T22:28:53.393Z,19.10
2022-09-13T22:31:22.759Z,19.10
2022-09-13T22:33:51.153Z,19.00
2022-09-13T22:36:19.446Z,19.10
2022-09-13T22:38:50.897Z,19.10
2022-09-13T22:41:28.598Z,19.10
2022-09-13T22:43:55.667Z,19.10
2022-09-13T22:46:24.958Z,19.10
2022-09-13T22:48:53.923Z,19.10
2022-09-13T22:51:21.328Z,19.10
2022-09-13T22:53:49.855Z,19.10
2022-09-13T22:56:22.798Z,19.00
2022-09-13T22:59:03.793Z,19.10
2022-09-13T23:01:31.776Z,19.20
2022-09-13T23:04:00.671Z,19.20
2022-09-13T23:06:28.342Z,19.30
2022-09-13T23:08:59.886Z,19.30
2022-09-13T23:11:27.963Z,19.20
2022-09-13T23:13:58.166Z,19.20
2022-09-13T23:16:31.460Z,19.20
2022-09-13T23:18:58.902Z,19.20
2022-09-13T23:21:28.671Z,19.20
2022-09-13T23:23:55.401Z,19.10
2022-09-13T23:26:23.424Z,19.10
2022-09-13T23:28:56.406Z,19.10
2022-09-13T23:31:26.099Z,19.10
2022-09-13T23:33:54.988Z,19.20
2022-09-13T23:36:24.542Z,19.20
2022-09-13T23:38:53.532Z,19.30
2022-09-13T23:41:21.298Z,19.30
2022-09-13T23:43:48.455Z,19.20
2022-09-13T23:46:15.841Z,19.10
2022-09-13T23:48:45.615Z,19.10
2022-09-13T23:51:15.633Z,19.10
2022-09-13T23:53:42.683Z,19.00
2022-09-13T23:56:10.029Z,19.00
2022-09-13T23:58:38.142Z,19.00
